sensor_id;sensor_type;location;lat;lon;timestamp;temperature;humidity
75357;HTU21D;63946;51.986;5.930;2023-03-31T05:41:16;11.07;77.86
75357;HTU21D;63946;51.986;5.930;2023-03-31T05:43:45;11.07;77.90
75357;HTU21D;63946;51.986;5.930;2023-03-31T05:46:14;11.09;77.93
75357;HTU21D;63946;51.986;5.930;2023-03-31T05:48:46;11.09;77.94
75357;HTU21D;63946;51.986;5.930;2023-03-31T05:51:15;11.10;77.95
75357;HTU21D;63946;51.986;5.930;2023-03-31T05:53:44;11.14;77.87
75357;HTU21D;63946;51.986;5.930;2023-03-31T05:56:12;11.14;77.89
75357;HTU21D;63946;51.986;5.930;2023-03-31T05:58:41;11.14;77.92
75357;HTU21D;63946;51.986;5.930;2023-03-31T06:01:12;11.13;77.92
75357;HTU21D;63946;51.986;5.930;2023-03-31T06:03:44;11.16;77.89
75357;HTU21D;63946;51.986;5.930;2023-03-31T06:06:14;11.20;77.76
75357;HTU21D;63946;51.986;5.930;2023-03-31T06:08:44;11.20;77.76
75357;HTU21D;63946;51.986;5.930;2023-03-31T06:11:18;11.20;77.89
75357;HTU21D;63946;51.986;5.930;2023-03-31T06:13:48;11.23;77.87
75357;HTU21D;63946;51.986;5.930;2023-03-31T06:16:17;11.26;77.79
75357;HTU21D;63946;51.986;5.930;2023-03-31T06:18:46;11.31;77.68
75357;HTU21D;63946;51.986;5.930;2023-03-31T06:21:16;11.38;77.49
75357;HTU21D;63946;51.986;5.930;2023-03-31T06:23:46;11.43;77.24
75357;HTU21D;63946;51.986;5.930;2023-03-31T06:26:19;11.40;77.12
75357;HTU21D;63946;51.986;5.930;2023-03-31T06:28:48;11.31;77.24
75357;HTU21D;63946;51.986;5.930;2023-03-31T06:31:23;11.33;77.27
75357;HTU21D;63946;51.986;5.930;2023-03-31T06:33:52;11.41;77.09
75357;HTU21D;63946;51.986;5.930;2023-03-31T06:36:21;11.49;76.78
75357;HTU21D;63946;51.986;5.930;2023-03-31T06:38:50;11.55;76.59
75357;HTU21D;63946;51.986;5.930;2023-03-31T06:41:19;11.56;76.39
75357;HTU21D;63946;51.986;5.930;2023-03-31T06:43:48;11.55;76.37
75357;HTU21D;63946;51.986;5.930;2023-03-31T06:46:17;11.60;76.11
75357;HTU21D;63946;51.986;5.930;2023-03-31T06:48:46;11.66;75.86
75357;HTU21D;63946;51.986;5.930;2023-03-31T06:51:15;11.71;75.69
75357;HTU21D;63946;51.986;5.930;2023-03-31T06:53:44;11.74;75.63
75357;HTU21D;63946;51.986;5.930;2023-03-31T06:56:12;11.77;75.50
75357;HTU21D;63946;51.986;5.930;2023-03-31T06:58:41;11.81;75.28
75357;HTU21D;63946;51.986;5.930;2023-03-31T07:01:10;11.85;75.18
75357;HTU21D;63946;51.986;5.930;2023-03-31T07:03:39;11.85;75.01
75357;HTU21D;63946;51.986;5.930;2023-03-31T07:06:07;11.79;75.12
75357;HTU21D;63946;51.986;5.930;2023-03-31T07:08:36;11.79;75.17
75357;HTU21D;63946;51.986;5.930;2023-03-31T07:11:05;11.79;75.26
75357;HTU21D;63946;51.986;5.930;2023-03-31T07:13:34;11.84;75.08
75357;HTU21D;63946;51.986;5.930;2023-03-31T07:16:05;11.83;75.05
75357;HTU21D;63946;51.986;5.930;2023-03-31T07:18:35;11.82;75.06
75357;HTU21D;63946;51.986;5.930;2023-03-31T07:21:07;11.82;75.09
75357;HTU21D;63946;51.986;5.930;2023-03-31T07:23:38;11.78;75.31
75357;HTU21D;63946;51.986;5.930;2023-03-31T07:26:07;11.79;75.31
75357;HTU21D;63946;51.986;5.930;2023-03-31T07:28:36;11.79;75.34
75357;HTU21D;63946;51.986;5.930;2023-03-31T07:31:12;11.79;75.41
75357;HTU21D;63946;51.986;5.930;2023-03-31T07:33:41;11.82;75.37
75357;HTU21D;63946;51.986;5.930;2023-03-31T07:36:10;11.85;75.31
75357;HTU21D;63946;51.986;5.930;2023-03-31T07:38:40;11.83;75.34
75357;HTU21D;63946;51.986;5.930;2023-03-31T07:41:12;11.76;75.37
75357;HTU21D;63946;51.986;5.930;2023-03-31T07:43:42;11.70;75.61
75357;HTU21D;63946;51.986;5.930;2023-03-31T07:46:22;11.67;75.86
75357;HTU21D;63946;51.986;5.930;2023-03-31T07:48:52;11.63;75.99
75357;HTU21D;63946;51.986;5.930;2023-03-31T07:51:24;11.61;76.12
75357;HTU21D;63946;51.986;5.930;2023-03-31T07:53:53;11.61;76.23
75357;HTU21D;63946;51.986;5.930;2023-03-31T07:56:23;11.61;76.32
75357;HTU21D;63946;51.986;5.930;2023-03-31T07:58:52;11.57;76.50
75357;HTU21D;63946;51.986;5.930;2023-03-31T08:01:21;11.57;76.64
75357;HTU21D;63946;51.986;5.930;2023-03-31T08:03:54;11.59;76.66
75357;HTU21D;63946;51.986;5.930;2023-03-31T08:06:24;11.64;76.53
75357;HTU21D;63946;51.986;5.930;2023-03-31T08:09:01;11.67;76.54
75357;HTU21D;63946;51.986;5.930;2023-03-31T08:11:38;11.67;76.49
75357;HTU21D;63946;51.986;5.930;2023-03-31T08:14:07;11.69;76.45
75357;HTU21D;63946;51.986;5.930;2023-03-31T08:16:39;11.74;76.28
75357;HTU21D;63946;51.986;5.930;2023-03-31T08:19:07;11.74;76.34
75357;HTU21D;63946;51.986;5.930;2023-03-31T08:21:40;11.75;76.39
75357;HTU21D;63946;51.986;5.930;2023-03-31T08:24:08;11.73;76.32
75357;HTU21D;63946;51.986;5.930;2023-03-31T08:26:40;11.70;76.49
75357;HTU21D;63946;51.986;5.930;2023-03-31T08:29:11;11.73;76.59
75357;HTU21D;63946;51.986;5.930;2023-03-31T08:31:40;11.73;76.66
75357;HTU21D;63946;51.986;5.930;2023-03-31T08:34:11;11.81;76.56
75357;HTU21D;63946;51.986;5.930;2023-03-31T08:36:40;11.88;76.43
75357;HTU21D;63946;51.986;5.930;2023-03-31T08:39:12;11.94;76.26
75357;HTU21D;63946;51.986;5.930;2023-03-31T08:41:52;12.07;76.08
75357;HTU21D;63946;51.986;5.930;2023-03-31T08:44:36;12.19;75.96
75357;HTU21D;63946;51.986;5.930;2023-03-31T08:47:11;12.33;75.68
75357;HTU21D;63946;51.986;5.930;2023-03-31T08:49:49;12.44;75.43
75357;HTU21D;63946;51.986;5.930;2023-03-31T08:52:43;12.60;75.12
75357;HTU21D;63946;51.986;5.930;2023-03-31T08:55:21;12.72;74.76
75357;HTU21D;63946;51.986;5.930;2023-03-31T08:58:23;12.82;74.63
75357;HTU21D;63946;51.986;5.930;2023-03-31T09:03:32;12.92;74.38
75357;HTU21D;63946;51.986;5.930;2023-03-31T09:06:35;13.02;74.28
75357;HTU21D;63946;51.986;5.930;2023-03-31T09:09:10;13.09;73.94
75357;HTU21D;63946;51.986;5.930;2023-03-31T09:11:55;13.16;73.77
75357;HTU21D;63946;51.986;5.930;2023-03-31T09:14:32;13.20;73.83
75357;HTU21D;63946;51.986;5.930;2023-03-31T09:17:17;13.30;73.83
75357;HTU21D;63946;51.986;5.930;2023-03-31T09:19:51;13.30;73.69
75357;HTU21D;63946;51.986;5.930;2023-03-31T09:22:26;13.32;73.78
75357;HTU21D;63946;51.986;5.930;2023-03-31T09:25:02;13.26;73.71
75357;HTU21D;63946;51.986;5.930;2023-03-31T09:27:33;13.24;73.90
75357;HTU21D;63946;51.986;5.930;2023-03-31T09:30:24;13.27;73.76
75357;HTU21D;63946;51.986;5.930;2023-03-31T09:36:00;13.29;73.91
75357;HTU21D;63946;51.986;5.930;2023-03-31T09:38:29;13.33;73.88
75357;HTU21D;63946;51.986;5.930;2023-03-31T09:41:00;13.37;73.82
75357;HTU21D;63946;51.986;5.930;2023-03-31T09:43:32;13.47;73.59
75357;HTU21D;63946;51.986;5.930;2023-03-31T09:46:15;13.51;73.54
75357;HTU21D;63946;51.986;5.930;2023-03-31T09:48:52;13.56;73.53
75357;HTU21D;63946;51.986;5.930;2023-03-31T09:51:27;13.58;73.42
75357;HTU21D;63946;51.986;5.930;2023-03-31T09:54:05;13.56;73.06
75357;HTU21D;63946;51.986;5.930;2023-03-31T09:59:16;13.63;73.19
75357;HTU21D;63946;51.986;5.930;2023-03-31T10:01:48;13.70;73.10
75357;HTU21D;63946;51.986;5.930;2023-03-31T10:04:26;13.76;72.88
75357;HTU21D;63946;51.986;5.930;2023-03-31T10:07:00;13.77;72.73
75357;HTU21D;63946;51.986;5.930;2023-03-31T10:09:31;13.76;72.58
75357;HTU21D;63946;51.986;5.930;2023-03-31T10:12:08;13.70;72.29
75357;HTU21D;63946;51.986;5.930;2023-03-31T10:14:49;13.61;72.46
75357;HTU21D;63946;51.986;5.930;2023-03-31T10:17:21;13.55;72.31
75357;HTU21D;63946;51.986;5.930;2023-03-31T10:19:57;13.50;72.16
75357;HTU21D;63946;51.986;5.930;2023-03-31T10:22:30;13.46;72.01
75357;HTU21D;63946;51.986;5.930;2023-03-31T10:25:16;13.46;71.87
75357;HTU21D;63946;51.986;5.930;2023-03-31T10:27:47;13.44;71.70
75357;HTU21D;63946;51.986;5.930;2023-03-31T10:30:21;13.41;71.65
75357;HTU21D;63946;51.986;5.930;2023-03-31T10:32:51;13.41;71.50
75357;HTU21D;63946;51.986;5.930;2023-03-31T10:35:29;13.38;71.16
75357;HTU21D;63946;51.986;5.930;2023-03-31T10:38:06;13.39;71.07
75357;HTU21D;63946;51.986;5.930;2023-03-31T10:40:36;13.45;70.58
75357;HTU21D;63946;51.986;5.930;2023-03-31T10:43:13;13.50;70.34
75357;HTU21D;63946;51.986;5.930;2023-03-31T10:45:50;13.60;69.93
75357;HTU21D;63946;51.986;5.930;2023-03-31T10:48:28;13.71;69.55
75357;HTU21D;63946;51.986;5.930;2023-03-31T10:51:04;13.84;69.28
75357;HTU21D;63946;51.986;5.930;2023-03-31T10:53:48;13.95;68.94
75357;HTU21D;63946;51.986;5.930;2023-03-31T10:56:44;14.01;68.61
75357;HTU21D;63946;51.986;5.930;2023-03-31T11:02:01;14.17;68.09
75357;HTU21D;63946;51.986;5.930;2023-03-31T11:04:43;14.28;67.80
75357;HTU21D;63946;51.986;5.930;2023-03-31T11:07:47;14.37;67.44
75357;HTU21D;63946;51.986;5.930;2023-03-31T11:14:07;14.36;66.22
75357;HTU21D;63946;51.986;5.930;2023-03-31T11:16:45;14.33;66.60
75357;HTU21D;63946;51.986;5.930;2023-03-31T11:24:27;14.23;66.66
75357;HTU21D;63946;51.986;5.930;2023-03-31T11:29:59;14.25;66.46
75357;HTU21D;63946;51.986;5.930;2023-03-31T11:41:23;14.49;66.49
75357;HTU21D;63946;51.986;5.930;2023-03-31T11:44:05;14.58;65.88
75357;HTU21D;63946;51.986;5.930;2023-03-31T11:49:18;14.53;65.74
75357;HTU21D;63946;51.986;5.930;2023-03-31T11:51:55;14.58;65.38
75357;HTU21D;63946;51.986;5.930;2023-03-31T11:54:36;14.71;65.44
75357;HTU21D;63946;51.986;5.930;2023-03-31T11:57:14;14.84;64.81
75357;HTU21D;63946;51.986;5.930;2023-03-31T11:59:48;14.88;64.48
75357;HTU21D;63946;51.986;5.930;2023-03-31T12:05:13;14.64;64.47
75357;HTU21D;63946;51.986;5.930;2023-03-31T12:07:51;14.56;64.28
75357;HTU21D;63946;51.986;5.930;2023-03-31T12:10:28;14.51;64.65
75357;HTU21D;63946;51.986;5.930;2023-03-31T12:16:36;14.42;64.79
75357;HTU21D;63946;51.986;5.930;2023-03-31T12:22:43;14.52;64.10
75357;HTU21D;63946;51.986;5.930;2023-03-31T12:24:47;14.54;64.21
75357;HTU21D;63946;51.986;5.930;2023-03-31T12:27:43;14.51;64.18
75357;HTU21D;63946;51.986;5.930;2023-03-31T12:30:21;14.50;64.35
75357;HTU21D;63946;51.986;5.930;2023-03-31T12:33:23;14.44;64.69
75357;HTU21D;63946;51.986;5.930;2023-03-31T12:38:45;14.35;65.17
75357;HTU21D;63946;51.986;5.930;2023-03-31T12:41:34;14.25;65.23
75357;HTU21D;63946;51.986;5.930;2023-03-31T12:44:29;14.21;65.28
75357;HTU21D;63946;51.986;5.930;2023-03-31T12:47:17;14.18;65.01
75357;HTU21D;63946;51.986;5.930;2023-03-31T12:55:39;14.11;64.88
75357;HTU21D;63946;51.986;5.930;2023-03-31T13:06:03;13.95;65.38
75357;HTU21D;63946;51.986;5.930;2023-03-31T13:08:52;13.93;65.22
75357;HTU21D;63946;51.986;5.930;2023-03-31T13:11:39;13.94;65.27
75357;HTU21D;63946;51.986;5.930;2023-03-31T13:14:13;13.94;65.40
75357;HTU21D;63946;51.986;5.930;2023-03-31T13:16:46;13.98;65.36
75357;HTU21D;63946;51.986;5.930;2023-03-31T13:19:32;14.01;65.00
75357;HTU21D;63946;51.986;5.930;2023-03-31T13:22:04;14.12;65.32
75357;HTU21D;63946;51.986;5.930;2023-03-31T13:24:33;14.18;64.95
75357;HTU21D;63946;51.986;5.930;2023-03-31T13:27:29;14.21;64.95
75357;HTU21D;63946;51.986;5.930;2023-03-31T13:30:00;14.20;65.01
75357;HTU21D;63946;51.986;5.930;2023-03-31T13:32:30;14.17;65.18
75357;HTU21D;63946;51.986;5.930;2023-03-31T13:35:13;14.14;65.37
75357;HTU21D;63946;51.986;5.930;2023-03-31T13:41:04;13.94;66.02
75357;HTU21D;63946;51.986;5.930;2023-03-31T13:43:47;13.92;66.22
75357;HTU21D;63946;51.986;5.930;2023-03-31T13:49:38;13.76;66.88
75357;HTU21D;63946;51.986;5.930;2023-03-31T13:52:23;13.67;67.37
75357;HTU21D;63946;51.986;5.930;2023-03-31T14:00:59;13.58;68.30
75357;HTU21D;63946;51.986;5.930;2023-03-31T14:09:25;13.53;68.62
75357;HTU21D;63946;51.986;5.930;2023-03-31T14:11:58;13.50;68.82
75357;HTU21D;63946;51.986;5.930;2023-03-31T14:14:27;13.46;68.84
75357;HTU21D;63946;51.986;5.930;2023-03-31T14:16:58;13.45;69.09
75357;HTU21D;63946;51.986;5.930;2023-03-31T14:20:01;13.47;69.20
75357;HTU21D;63946;51.986;5.930;2023-03-31T14:22:57;13.46;69.28
75357;HTU21D;63946;51.986;5.930;2023-03-31T14:28:52;13.48;69.15
75357;HTU21D;63946;51.986;5.930;2023-03-31T14:34:31;13.44;69.27
75357;HTU21D;63946;51.986;5.930;2023-03-31T14:37:04;13.45;69.22
75357;HTU21D;63946;51.986;5.930;2023-03-31T14:39:37;13.46;69.17
75357;HTU21D;63946;51.986;5.930;2023-03-31T14:42:13;13.47;69.13
75357;HTU21D;63946;51.986;5.930;2023-03-31T14:44:43;13.43;69.10
75357;HTU21D;63946;51.986;5.930;2023-03-31T14:47:15;13.40;69.31
75357;HTU21D;63946;51.986;5.930;2023-03-31T14:49:47;13.35;69.40
75357;HTU21D;63946;51.986;5.930;2023-03-31T14:52:28;13.34;69.41
75357;HTU21D;63946;51.986;5.930;2023-03-31T14:55:00;13.30;69.46
75357;HTU21D;63946;51.986;5.930;2023-03-31T14:57:37;13.26;69.53
75357;HTU21D;63946;51.986;5.930;2023-03-31T15:00:10;13.25;69.55
75357;HTU21D;63946;51.986;5.930;2023-03-31T15:02:44;13.23;69.71
75357;HTU21D;63946;51.986;5.930;2023-03-31T15:05:24;13.18;69.85
75357;HTU21D;63946;51.986;5.930;2023-03-31T15:07:57;13.11;69.97
75357;HTU21D;63946;51.986;5.930;2023-03-31T15:10:32;13.08;69.99
75357;HTU21D;63946;51.986;5.930;2023-03-31T15:13:11;13.07;70.19
75357;HTU21D;63946;51.986;5.930;2023-03-31T15:15:43;13.01;70.29
75357;HTU21D;63946;51.986;5.930;2023-03-31T15:18:14;12.95;70.42
75357;HTU21D;63946;51.986;5.930;2023-03-31T15:20:44;12.99;70.27
75357;HTU21D;63946;51.986;5.930;2023-03-31T15:23:26;12.97;70.19
75357;HTU21D;63946;51.986;5.930;2023-03-31T15:26:06;13.00;70.20
75357;HTU21D;63946;51.986;5.930;2023-03-31T15:28:49;13.05;70.17
75357;HTU21D;63946;51.986;5.930;2023-03-31T15:31:21;13.10;70.13
75357;HTU21D;63946;51.986;5.930;2023-03-31T15:33:52;13.07;70.13
75357;HTU21D;63946;51.986;5.930;2023-03-31T15:36:21;13.08;70.25
75357;HTU21D;63946;51.986;5.930;2023-03-31T15:38:55;13.06;70.02
75357;HTU21D;63946;51.986;5.930;2023-03-31T15:41:28;13.04;70.04
75357;HTU21D;63946;51.986;5.930;2023-03-31T15:44:05;13.00;70.17
75357;HTU21D;63946;51.986;5.930;2023-03-31T15:49:19;12.95;70.14
75357;HTU21D;63946;51.986;5.930;2023-03-31T15:51:49;12.95;70.17
75357;HTU21D;63946;51.986;5.930;2023-03-31T15:54:32;12.91;70.42
75357;HTU21D;63946;51.986;5.930;2023-03-31T15:57:04;12.90;70.43
75357;HTU21D;63946;51.986;5.930;2023-03-31T15:59:47;12.89;70.55
75357;HTU21D;63946;51.986;5.930;2023-03-31T16:02:22;12.85;70.73
75357;HTU21D;63946;51.986;5.930;2023-03-31T16:04:55;12.79;70.90
75357;HTU21D;63946;51.986;5.930;2023-03-31T16:07:30;12.73;71.19
75357;HTU21D;63946;51.986;5.930;2023-03-31T16:10:09;12.73;71.36
75357;HTU21D;63946;51.986;5.930;2023-03-31T16:12:53;12.71;71.22
75357;HTU21D;63946;51.986;5.930;2023-03-31T16:15:39;12.70;71.17
75357;HTU21D;63946;51.986;5.930;2023-03-31T16:18:15;12.60;71.20
75357;HTU21D;63946;51.986;5.930;2023-03-31T16:20:55;12.60;71.09
75357;HTU21D;63946;51.986;5.930;2023-03-31T16:23:27;12.59;71.08
75357;HTU21D;63946;51.986;5.930;2023-03-31T16:26:00;12.59;71.17
75357;HTU21D;63946;51.986;5.930;2023-03-31T16:28:32;12.57;71.06
75357;HTU21D;63946;51.986;5.930;2023-03-31T16:31:35;12.56;70.99
75357;HTU21D;63946;51.986;5.930;2023-03-31T16:34:10;12.47;70.88
75357;HTU21D;63946;51.986;5.930;2023-03-31T16:36:42;12.44;70.87
75357;HTU21D;63946;51.986;5.930;2023-03-31T16:39:14;12.43;70.93
75357;HTU21D;63946;51.986;5.930;2023-03-31T16:41:42;12.41;71.03
75357;HTU21D;63946;51.986;5.930;2023-03-31T16:44:11;12.41;71.02
75357;HTU21D;63946;51.986;5.930;2023-03-31T16:46:40;12.36;71.01
75357;HTU21D;63946;51.986;5.930;2023-03-31T16:49:09;12.34;70.98
75357;HTU21D;63946;51.986;5.930;2023-03-31T16:51:38;12.32;71.15
75357;HTU21D;63946;51.986;5.930;2023-03-31T16:54:09;12.28;71.23
75357;HTU21D;63946;51.986;5.930;2023-03-31T16:56:37;12.27;71.27
75357;HTU21D;63946;51.986;5.930;2023-03-31T16:59:06;12.25;71.29
75357;HTU21D;63946;51.986;5.930;2023-03-31T17:01:35;12.23;71.46
75357;HTU21D;63946;51.986;5.930;2023-03-31T17:04:04;12.22;71.63
75357;HTU21D;63946;51.986;5.930;2023-03-31T17:06:35;12.13;71.87
75357;HTU21D;63946;51.986;5.930;2023-03-31T17:09:04;11.94;72.41
75357;HTU21D;63946;51.986;5.930;2023-03-31T17:11:39;11.84;73.01
75357;HTU21D;63946;51.986;5.930;2023-03-31T17:14:08;11.82;73.16
75357;HTU21D;63946;51.986;5.930;2023-03-31T17:16:37;11.82;73.24
75357;HTU21D;63946;51.986;5.930;2023-03-31T17:19:07;11.81;73.22
75357;HTU21D;63946;51.986;5.930;2023-03-31T17:21:39;11.75;73.48
75357;HTU21D;63946;51.986;5.930;2023-03-31T17:24:08;11.72;73.65
75357;HTU21D;63946;51.986;5.930;2023-03-31T17:26:37;11.73;73.64
75357;HTU21D;63946;51.986;5.930;2023-03-31T17:29:06;11.74;73.68
75357;HTU21D;63946;51.986;5.930;2023-03-31T17:31:35;11.68;73.77
75357;HTU21D;63946;51.986;5.930;2023-03-31T17:34:04;11.64;73.90
75357;HTU21D;63946;51.986;5.930;2023-03-31T17:36:37;11.67;73.87
75357;HTU21D;63946;51.986;5.930;2023-03-31T17:39:06;11.69;73.82
75357;HTU21D;63946;51.986;5.930;2023-03-31T17:41:36;11.71;73.90
75357;HTU21D;63946;51.986;5.930;2023-03-31T17:44:05;11.64;74.06
75357;HTU21D;63946;51.986;5.930;2023-03-31T17:46:35;11.57;74.35
75357;HTU21D;63946;51.986;5.930;2023-03-31T17:49:16;11.49;74.67
75357;HTU21D;63946;51.986;5.930;2023-03-31T17:51:46;11.47;74.89
75357;HTU21D;63946;51.986;5.930;2023-03-31T17:54:14;11.48;74.90
75357;HTU21D;63946;51.986;5.930;2023-03-31T17:56:43;11.41;75.16
75357;HTU21D;63946;51.986;5.930;2023-03-31T17:59:18;11.38;75.43
75357;HTU21D;63946;51.986;5.930;2023-03-31T18:01:47;11.36;75.53
75357;HTU21D;63946;51.986;5.930;2023-03-31T18:04:16;11.38;75.58
75357;HTU21D;63946;51.986;5.930;2023-03-31T18:06:48;11.39;75.61
75357;HTU21D;63946;51.986;5.930;2023-03-31T18:09:17;11.37;75.74
75357;HTU21D;63946;51.986;5.930;2023-03-31T18:11:46;11.27;76.01
75357;HTU21D;63946;51.986;5.930;2023-03-31T18:14:15;11.26;76.19
75357;HTU21D;63946;51.986;5.930;2023-03-31T18:16:44;11.30;76.13
75357;HTU21D;63946;51.986;5.930;2023-03-31T18:19:13;11.34;76.00
75357;HTU21D;63946;51.986;5.930;2023-03-31T18:21:41;11.42;75.87
75357;HTU21D;63946;51.986;5.930;2023-03-31T18:24:10;11.42;75.86
75357;HTU21D;63946;51.986;5.930;2023-03-31T18:26:39;11.41;75.98
75357;HTU21D;63946;51.986;5.930;2023-03-31T18:29:08;11.42;75.95
75357;HTU21D;63946;51.986;5.930;2023-03-31T18:31:39;11.41;76.02
75357;HTU21D;63946;51.986;5.930;2023-03-31T18:34:08;11.37;76.18
75357;HTU21D;63946;51.986;5.930;2023-03-31T18:36:43;11.38;76.17
75357;HTU21D;63946;51.986;5.930;2023-03-31T18:39:12;11.34;76.31
75357;HTU21D;63946;51.986;5.930;2023-03-31T18:41:44;11.29;76.51
75357;HTU21D;63946;51.986;5.930;2023-03-31T18:44:17;11.25;76.48
75357;HTU21D;63946;51.986;5.930;2023-03-31T18:46:46;11.27;76.46
75357;HTU21D;63946;51.986;5.930;2023-03-31T18:49:15;11.29;76.46
75357;HTU21D;63946;51.986;5.930;2023-03-31T18:51:45;11.32;76.43
75357;HTU21D;63946;51.986;5.930;2023-03-31T18:54:13;11.31;76.51
75357;HTU21D;63946;51.986;5.930;2023-03-31T18:56:42;11.25;76.77
75357;HTU21D;63946;51.986;5.930;2023-03-31T18:59:11;11.18;77.04
75357;HTU21D;63946;51.986;5.930;2023-03-31T19:01:40;11.15;77.17
75357;HTU21D;63946;51.986;5.930;2023-03-31T19:04:09;11.14;77.34
75357;HTU21D;63946;51.986;5.930;2023-03-31T19:06:38;11.13;77.43
75357;HTU21D;63946;51.986;5.930;2023-03-31T19:09:06;11.13;77.44
75357;HTU21D;63946;51.986;5.930;2023-03-31T19:11:38;11.15;77.43
75357;HTU21D;63946;51.986;5.930;2023-03-31T19:14:10;11.15;77.46
75357;HTU21D;63946;51.986;5.930;2023-03-31T19:16:39;11.10;77.65
75357;HTU21D;63946;51.986;5.930;2023-03-31T19:19:10;11.08;77.82
75357;HTU21D;63946;51.986;5.930;2023-03-31T19:21:41;11.12;77.77
75357;HTU21D;63946;51.986;5.930;2023-03-31T19:24:10;11.16;77.66
75357;HTU21D;63946;51.986;5.930;2023-03-31T19:26:39;11.15;77.67
75357;HTU21D;63946;51.986;5.930;2023-03-31T19:29:08;11.14;77.69
75357;HTU21D;63946;51.986;5.930;2023-03-31T19:31:39;11.14;77.64
75357;HTU21D;63946;51.986;5.930;2023-03-31T19:34:10;11.15;77.63
75357;HTU21D;63946;51.986;5.930;2023-03-31T19:36:41;11.11;77.68
75357;HTU21D;63946;51.986;5.930;2023-03-31T19:39:10;11.08;77.77
75357;HTU21D;63946;51.986;5.930;2023-03-31T19:41:39;11.05;77.85
75357;HTU21D;63946;51.986;5.930;2023-03-31T19:44:10;11.02;78.02
75357;HTU21D;63946;51.986;5.930;2023-03-31T19:46:39;11.07;77.97
75357;HTU21D;63946;51.986;5.930;2023-03-31T19:49:14;11.08;77.95
75357;HTU21D;63946;51.986;5.930;2023-03-31T19:51:45;11.07;77.93
75357;HTU21D;63946;51.986;5.930;2023-03-31T19:54:13;11.10;77.87
75357;HTU21D;63946;51.986;5.930;2023-03-31T19:56:42;11.11;77.81
75357;HTU21D;63946;51.986;5.930;2023-03-31T19:59:12;11.15;77.67
75357;HTU21D;63946;51.986;5.930;2023-03-31T20:01:40;11.14;77.60
75357;HTU21D;63946;51.986;5.930;2023-03-31T20:04:18;11.10;77.76
75357;HTU21D;63946;51.986;5.930;2023-03-31T20:06:47;11.14;77.61
75357;HTU21D;63946;51.986;5.930;2023-03-31T20:09:18;11.13;77.60
75357;HTU21D;63946;51.986;5.930;2023-03-31T20:11:47;11.14;77.57
